createdAt,value
2022-09-06T00:00:13.857Z,97369.84
2022-09-06T00:02:41.505Z,97369.84
2022-09-06T00:05:09.756Z,97370.09
2022-09-06T00:07:36.772Z,97365.38
2022-09-06T00:10:07.715Z,97362.72
2022-09-06T00:12:34.669Z,97369.47
2022-09-06T00:15:02.415Z,97357.28
2022-09-06T00:17:29.027Z,97370.22
2022-09-06T00:20:51.463Z,97368.91
2022-09-06T00:23:41.545Z,97376.38
2022-09-06T00:26:08.073Z,97372.88
2022-09-06T00:28:34.616Z,97372.69
2022-09-06T00:35:12.016Z,97360.03
2022-09-06T00:37:40.875Z,97363.91
2022-09-06T00:40:10.992Z,97356.78
2022-09-06T00:42:51.334Z,97357.88
2022-09-06T00:45:36.284Z,97357.06
2022-09-06T00:48:06.446Z,97357.06
2022-09-06T00:51:05.899Z,97369.47
2022-09-06T00:56:50.945Z,97367.47
2022-09-06T00:59:24.787Z,97371.94
2022-09-06T01:02:01.012Z,97364.00
2022-09-06T01:04:42.682Z,97364.72
2022-09-06T01:26:50.930Z,97372.47
2022-09-06T01:29:37.711Z,97372.72
2022-09-06T01:36:01.308Z,97364.28
2022-09-06T01:38:30.529Z,97369.81
2022-09-06T01:40:57.130Z,97375.22
2022-09-06T01:43:33.511Z,97373.41
2022-09-06T01:46:18.591Z,97377.13
2022-09-06T01:56:44.780Z,97389.53
2022-09-06T01:59:36.356Z,97385.06
2022-09-06T02:02:09.531Z,97380.63
2022-09-06T02:04:51.449Z,97376.88
2022-09-06T02:07:23.093Z,97373.91
2022-09-06T02:10:13.446Z,97379.03
2022-09-06T02:12:43.501Z,97381.34
2022-09-06T02:15:11.771Z,97381.31
2022-09-06T02:17:50.644Z,97378.19
2022-09-06T02:20:45.509Z,97383.59
2022-09-06T02:23:16.563Z,97377.97
2022-09-06T02:25:53.576Z,97378.31
2022-09-06T02:28:21.626Z,97375.53
2022-09-06T02:30:56.252Z,97374.34
2022-09-06T02:33:35.946Z,97378.31
2022-09-06T02:36:06.819Z,97375.16
2022-09-06T02:38:39.487Z,97375.75
2022-09-06T02:41:07.275Z,97366.50
2022-09-06T02:43:34.256Z,97365.41
2022-09-06T02:46:00.919Z,97363.13
2022-09-06T02:48:27.697Z,97364.47
2022-09-06T02:50:54.361Z,97360.97
2022-09-06T02:53:21.077Z,97364.09
2022-09-06T02:55:48.736Z,97359.38
2022-09-06T02:58:15.512Z,97355.16
2022-09-06T03:00:42.277Z,97360.72
2022-09-06T03:03:08.853Z,97363.59
2022-09-06T03:05:38.651Z,97365.38
2022-09-06T03:08:05.758Z,97364.31
2022-09-06T03:20:03.199Z,97366.94
2022-09-06T03:22:30.106Z,97361.66
2022-09-06T03:25:26.138Z,97358.13
2022-09-06T03:27:52.773Z,97352.97
2022-09-06T03:30:19.483Z,97355.09
2022-09-06T03:32:46.036Z,97357.63
2022-09-06T03:35:13.186Z,97350.78
2022-09-06T03:37:39.722Z,97355.69
2022-09-06T03:40:08.269Z,97353.75
2022-09-06T03:42:34.875Z,97359.88
2022-09-06T03:45:08.426Z,97356.00
2022-09-06T03:47:34.984Z,97357.44
2022-09-06T03:50:01.581Z,97350.00
2022-09-06T03:52:28.145Z,97361.03
2022-09-06T03:54:54.767Z,97358.63
2022-09-06T03:57:21.371Z,97357.16
2022-09-06T03:59:48.179Z,97356.41
2022-09-06T04:02:14.812Z,97353.16
2022-09-06T04:04:41.422Z,97363.72
2022-09-06T04:07:08.065Z,97364.47
2022-09-06T04:09:34.738Z,97355.78
2022-09-06T04:12:01.370Z,97347.69
2022-09-06T04:14:29.177Z,97355.78
2022-09-06T04:16:56.325Z,97356.78
2022-09-06T04:19:23.806Z,97364.78
2022-09-06T04:21:50.401Z,97368.31
2022-09-06T04:24:16.941Z,97374.22
2022-09-06T04:26:43.946Z,97372.63
2022-09-06T04:29:10.631Z,97373.19
2022-09-06T04:31:45.528Z,97370.56
2022-09-06T04:34:32.266Z,97373.47
2022-09-06T04:44:27.869Z,97379.38
2022-09-06T04:47:09.851Z,97374.16
2022-09-06T04:49:36.392Z,97370.03
2022-09-06T04:52:03.098Z,97375.00
2022-09-06T04:54:29.657Z,97365.69
2022-09-06T04:56:56.169Z,97360.41
2022-09-06T04:59:22.765Z,97372.22
2022-09-06T05:01:49.363Z,97379.84
2022-09-06T05:04:16.750Z,97388.53
2022-09-06T05:06:43.806Z,97390.50
2022-09-06T05:19:42.292Z,97388.03
2022-09-06T05:26:00.355Z,97390.25
2022-09-06T05:28:29.945Z,97392.34
2022-09-06T05:31:11.016Z,97395.22
2022-09-06T05:33:38.180Z,97407.78
2022-09-06T05:36:06.113Z,97402.75
2022-09-06T05:38:33.148Z,97401.94
2022-09-06T05:41:00.322Z,97396.38
2022-09-06T05:43:26.829Z,97391.94
2022-09-06T05:45:53.403Z,97393.22
2022-09-06T05:48:20.021Z,97396.03
2022-09-06T05:50:59.848Z,97406.97
2022-09-06T05:53:26.248Z,97411.88
2022-09-06T05:55:53.141Z,97407.38
2022-09-06T05:58:19.704Z,97400.66
2022-09-06T06:00:46.778Z,97397.47
2022-09-06T06:03:29.280Z,97391.00
2022-09-06T06:22:12.755Z,97397.41
2022-09-06T06:24:39.789Z,97388.38
2022-09-06T06:27:06.333Z,97394.34
2022-09-06T06:29:32.878Z,97393.34
2022-09-06T06:32:00.773Z,97392.72
2022-09-06T06:34:27.413Z,97398.59
2022-09-06T06:36:54.191Z,97393.00
2022-09-06T06:46:41.699Z,97398.44
2022-09-06T06:49:08.182Z,97405.38
2022-09-06T06:51:37.355Z,97411.56
2022-09-06T06:54:04.263Z,97407.38
2022-09-06T07:00:16.722Z,97425.31
2022-09-06T07:06:18.481Z,97419.00
2022-09-06T07:12:12.910Z,97415.47
2022-09-06T07:18:01.508Z,97416.81
2022-09-06T07:20:28.010Z,97418.09
2022-09-06T07:29:10.016Z,97434.94
2022-09-06T07:37:53.944Z,97452.44
2022-09-06T07:40:24.413Z,97452.44
2022-09-06T07:42:50.977Z,97448.53
2022-09-06T07:54:57.000Z,97447.94
2022-09-06T08:09:55.276Z,97448.66
2022-09-06T08:16:25.796Z,97454.50
2022-09-06T08:22:25.921Z,97444.56
2022-09-06T08:24:52.401Z,97448.63
2022-09-06T08:27:18.801Z,97444.34
2022-09-06T08:33:13.050Z,97435.78
2022-09-06T08:39:13.961Z,97443.28
2022-09-06T08:41:46.559Z,97442.00
2022-09-06T08:47:08.169Z,97442.72
2022-09-06T08:49:40.056Z,97436.44
2022-09-06T08:55:53.723Z,97427.50
2022-09-06T08:58:29.128Z,97428.88
2022-09-06T09:04:50.744Z,97417.59
2022-09-06T09:07:25.081Z,97412.81
2022-09-06T09:13:20.526Z,97405.53
2022-09-06T09:15:46.986Z,97408.84
2022-09-06T09:29:01.764Z,97369.19
2022-09-06T09:31:36.193Z,97362.09
2022-09-06T09:51:28.166Z,97342.56
2022-09-06T09:53:57.547Z,97332.00
2022-09-06T10:01:09.870Z,97328.19
2022-09-06T10:18:33.565Z,97328.53
2022-09-06T10:25:32.240Z,97324.38
2022-09-06T10:31:51.920Z,97320.84
2022-09-06T10:38:17.879Z,97317.09
2022-09-06T10:41:01.506Z,97317.03
2022-09-06T10:47:43.557Z,97318.00
2022-09-06T10:50:10.071Z,97309.00
2022-09-06T10:56:49.755Z,97311.00
2022-09-06T11:06:47.566Z,97296.16
2022-09-06T11:09:27.830Z,97291.50
2022-09-06T11:15:47.382Z,97284.31
2022-09-06T11:22:38.762Z,97279.28
2022-09-06T11:29:10.572Z,97263.22
2022-09-06T11:43:15.743Z,97264.31
2022-09-06T11:45:53.428Z,97259.00
2022-09-06T11:52:01.049Z,97245.34
2022-09-06T11:58:39.873Z,97250.38
2022-09-06T12:05:07.493Z,97242.91
2022-09-06T12:12:33.749Z,97221.03
2022-09-06T12:30:32.532Z,97217.19
2022-09-06T12:33:00.628Z,97213.47
2022-09-06T12:50:35.393Z,97193.63
2022-09-06T12:56:50.163Z,97176.69
2022-09-06T12:59:24.971Z,97179.69
2022-09-06T13:02:05.802Z,97180.03
2022-09-06T13:20:16.805Z,97162.84
2022-09-06T13:22:49.292Z,97168.41
2022-09-06T13:39:38.570Z,97155.03
2022-09-06T13:42:11.705Z,97151.75
2022-09-06T13:52:53.469Z,97145.81
2022-09-06T14:03:50.464Z,97152.31
2022-09-06T14:09:47.957Z,97151.13
2022-09-06T14:26:06.593Z,97137.91
2022-09-06T14:28:36.610Z,97140.53
2022-09-06T14:41:20.138Z,97131.03
2022-09-06T14:55:05.556Z,97119.91
2022-09-06T15:04:46.348Z,97117.81
2022-09-06T15:07:19.744Z,97109.97
2022-09-06T15:09:46.303Z,97100.34
2022-09-06T15:12:13.366Z,97101.59
2022-09-06T15:14:41.106Z,97105.16
2022-09-06T15:17:08.978Z,97106.72
2022-09-06T15:19:37.534Z,97095.06
2022-09-06T15:22:05.843Z,97100.09
2022-09-06T15:24:35.293Z,97089.31
2022-09-06T15:27:01.915Z,97092.47
2022-09-06T15:29:28.550Z,97094.78
2022-09-06T15:31:57.847Z,97091.66
2022-09-06T15:34:26.019Z,97091.88
2022-09-06T15:36:53.498Z,97088.13
2022-09-06T15:39:20.218Z,97091.84
2022-09-06T15:41:46.713Z,97085.00
2022-09-06T15:44:14.590Z,97072.72
2022-09-06T15:46:47.135Z,97081.59
2022-09-06T15:49:15.493Z,97081.97
2022-09-06T15:51:42.238Z,97078.38
2022-09-06T15:54:09.302Z,97077.38
2022-09-06T15:56:36.468Z,97078.22
2022-09-06T15:59:02.906Z,97073.63
2022-09-06T16:01:29.498Z,97077.63
2022-09-06T16:04:03.640Z,97077.22
2022-09-06T16:06:31.469Z,97074.34
2022-09-06T16:09:02.070Z,97068.16
2022-09-06T16:11:30.068Z,97072.75
2022-09-06T16:13:56.639Z,97068.78
2022-09-06T16:16:26.366Z,97066.31
2022-09-06T16:18:54.224Z,97063.00
2022-09-06T16:21:23.970Z,97061.53
2022-09-06T16:23:55.325Z,97059.47
2022-09-06T16:26:22.818Z,97055.50
2022-09-06T16:28:50.781Z,97052.56
2022-09-06T16:31:18.007Z,97045.09
2022-09-06T16:33:45.888Z,97050.88
2022-09-06T16:36:13.901Z,97058.56
2022-09-06T16:38:40.833Z,97051.53
2022-09-06T16:41:12.319Z,97053.38
2022-09-06T16:43:38.860Z,97047.56
2022-09-06T16:46:05.542Z,97041.78
2022-09-06T16:48:32.035Z,97047.00
2022-09-06T16:51:07.454Z,97043.47
2022-09-06T16:53:33.879Z,97046.38
2022-09-06T16:56:02.299Z,97050.31
2022-09-06T17:18:41.214Z,97044.00
2022-09-06T17:21:08.173Z,97036.31
2022-09-06T17:23:35.215Z,97033.72
2022-09-06T17:26:03.420Z,97025.78
2022-09-06T17:28:32.493Z,97030.13
2022-09-06T17:31:00.857Z,97025.16
2022-09-06T17:33:27.755Z,97026.28
2022-09-06T17:35:54.174Z,97023.06
2022-09-06T17:38:20.596Z,97028.69
2022-09-06T17:40:56.424Z,97025.50
2022-09-06T17:43:22.991Z,97033.81
2022-09-06T17:45:49.598Z,97033.75
2022-09-06T17:48:16.258Z,97031.19
2022-09-06T17:50:43.233Z,97028.75
2022-09-06T17:53:10.373Z,97028.31
2022-09-06T17:55:41.440Z,97036.41
2022-09-06T17:58:08.696Z,97041.44
2022-09-06T18:00:40.149Z,97041.88
2022-09-06T18:03:08.776Z,97048.63
2022-09-06T18:05:42.924Z,97062.38
2022-09-06T18:08:10.058Z,97065.72
2022-09-06T18:10:37.904Z,97071.94
2022-09-06T18:13:05.813Z,97073.47
2022-09-06T18:15:37.981Z,97076.94
2022-09-06T18:18:04.681Z,97090.69
2022-09-06T18:20:31.280Z,97085.50
2022-09-06T18:22:58.384Z,97091.66
2022-09-06T18:25:24.994Z,97099.69
2022-09-06T18:27:51.563Z,97101.19
2022-09-06T18:30:18.101Z,97102.84
2022-09-06T18:32:44.782Z,97110.56
2022-09-06T18:35:11.396Z,97102.19
2022-09-06T18:37:38.711Z,97103.34
2022-09-06T18:40:06.343Z,97114.22
2022-09-06T18:42:33.466Z,97111.00
2022-09-06T18:45:02.825Z,97105.97
2022-09-06T18:47:29.402Z,97114.94
2022-09-06T18:49:55.949Z,97117.00
2022-09-06T18:52:22.578Z,97117.34
2022-09-06T18:54:49.415Z,97121.03
2022-09-06T18:57:17.270Z,97113.50
2022-09-06T18:59:44.639Z,97118.97
2022-09-06T19:02:11.599Z,97122.53
2022-09-06T19:04:38.366Z,97124.03
2022-09-06T19:07:05.008Z,97127.00
2022-09-06T19:09:31.586Z,97129.84
2022-09-06T19:11:58.179Z,97129.97
2022-09-06T19:14:24.848Z,97124.28
2022-09-06T19:16:54.495Z,97127.94
2022-09-06T19:19:24.808Z,97114.75
2022-09-06T19:21:51.417Z,97115.09
2022-09-06T19:24:18.122Z,97119.72
2022-09-06T19:26:45.144Z,97120.41
2022-09-06T19:29:17.582Z,97114.38
2022-09-06T19:31:46.085Z,97116.53
2022-09-06T19:34:15.427Z,97112.88
2022-09-06T19:36:43.165Z,97116.25
2022-09-06T19:39:14.291Z,97114.91
2022-09-06T19:41:44.980Z,97115.06
2022-09-06T19:44:11.930Z,97117.03
2022-09-06T19:46:41.847Z,97103.50
2022-09-06T19:49:14.713Z,97098.97
2022-09-06T19:51:43.139Z,97107.47
2022-09-06T19:54:09.734Z,97103.38
2022-09-06T19:56:36.711Z,97103.97
2022-09-06T19:59:05.698Z,97099.81
2022-09-06T20:01:34.406Z,97100.09
2022-09-06T20:04:02.790Z,97101.84
2022-09-06T20:06:30.360Z,97099.28
2022-09-06T20:08:58.485Z,97102.59
2022-09-06T20:11:27.811Z,97100.06
2022-09-06T20:13:54.914Z,97096.53
2022-09-06T20:16:22.451Z,97099.63
2022-09-06T20:18:49.130Z,97094.06
2022-09-06T20:29:20.917Z,97086.25
2022-09-06T20:35:35.213Z,97091.19
2022-09-06T20:38:01.904Z,97079.34
2022-09-06T20:40:28.496Z,97083.59
2022-09-06T20:42:55.080Z,97077.03
2022-09-06T20:45:25.280Z,97081.00
2022-09-06T20:47:52.420Z,97074.72
2022-09-06T20:50:19.190Z,97079.22
2022-09-06T20:52:45.790Z,97074.88
2022-09-06T20:55:12.338Z,97082.47
2022-09-06T20:57:38.983Z,97078.13
2022-09-06T21:00:05.902Z,97073.88
2022-09-06T21:02:32.556Z,97074.94
2022-09-06T21:05:00.464Z,97076.03
2022-09-06T21:07:27.452Z,97077.41
2022-09-06T21:09:58.387Z,97076.88
2022-09-06T21:12:25.090Z,97074.97
2022-09-06T21:14:51.615Z,97079.00
2022-09-06T21:17:18.213Z,97074.41
2022-09-06T21:19:44.977Z,97081.94
2022-09-06T21:22:12.004Z,97085.75
2022-09-06T21:24:38.520Z,97091.13
2022-09-06T21:27:06.803Z,97097.41
2022-09-06T21:29:33.420Z,97099.16
2022-09-06T21:32:00.061Z,97100.03
2022-09-06T21:34:26.695Z,97083.22
2022-09-06T21:36:53.257Z,97082.09
2022-09-06T21:39:19.854Z,97079.31
2022-09-06T21:41:46.518Z,97085.22
2022-09-06T21:44:13.452Z,97081.75
2022-09-06T21:46:40.937Z,97084.13
2022-09-06T21:49:12.768Z,97081.59
2022-09-06T21:51:40.139Z,97083.97
2022-09-06T21:54:07.411Z,97087.03
2022-09-06T21:56:35.943Z,97081.59
2022-09-06T21:59:04.175Z,97078.25
2022-09-06T22:01:32.601Z,97078.09
2022-09-06T22:04:00.164Z,97068.50
2022-09-06T22:06:29.113Z,97069.88
2022-09-06T22:08:58.657Z,97068.34
2022-09-06T22:11:28.201Z,97066.09
2022-09-06T22:13:59.069Z,97072.53
2022-09-06T22:16:29.471Z,97069.63
2022-09-06T22:18:56.420Z,97072.84
2022-09-06T22:21:23.235Z,97074.63
2022-09-06T22:23:51.585Z,97075.91
2022-09-06T22:26:18.900Z,97075.63
2022-09-06T22:28:45.674Z,97076.31
2022-09-06T22:31:12.245Z,97073.81
2022-09-06T22:33:39.155Z,97072.69
2022-09-06T22:36:06.479Z,97070.75
2022-09-06T22:38:33.450Z,97063.63
2022-09-06T22:41:00.008Z,97062.94
2022-09-06T22:43:26.870Z,97064.50
2022-09-06T22:45:53.661Z,97065.72
2022-09-06T22:48:20.264Z,97066.44
2022-09-06T22:50:46.821Z,97067.88
2022-09-06T22:53:13.394Z,97064.38
2022-09-06T22:55:40.137Z,97063.78
2022-09-06T22:58:06.724Z,97062.97
2022-09-06T23:00:36.051Z,97069.94
2022-09-06T23:03:02.904Z,97075.13
2022-09-06T23:05:31.355Z,97066.75
2022-09-06T23:08:00.208Z,97065.78
2022-09-06T23:10:27.492Z,97062.81
2022-09-06T23:12:54.633Z,97060.44
2022-09-06T23:15:22.005Z,97046.91
2022-09-06T23:17:48.669Z,97052.47
2022-09-06T23:20:15.336Z,97055.41
2022-09-06T23:22:42.068Z,97050.53
2022-09-06T23:25:09.483Z,97044.38
2022-09-06T23:27:36.673Z,97051.78
2022-09-06T23:30:05.420Z,97048.44
2022-09-06T23:32:33.193Z,97058.06
2022-09-06T23:34:59.851Z,97054.28
2022-09-06T23:37:26.470Z,97053.75
2022-09-06T23:39:53.161Z,97050.25
2022-09-06T23:42:21.042Z,97047.72
2022-09-06T23:44:47.639Z,97043.25
2022-09-06T23:47:14.479Z,97049.56
2022-09-06T23:49:41.242Z,97048.84
2022-09-06T23:52:10.854Z,97044.38
2022-09-06T23:54:37.588Z,97034.72
2022-09-06T23:57:04.283Z,97029.13
2022-09-06T23:59:30.973Z,97026.91
